Impacts TAF Board INFO
FOR SITUATIONAL AWARENESS. NOT TO BE USED FOR FLIGHT PLANNING PURPOSES.
IDs:

KTPA - Tampa Intl Arpt, FL, US

Issued at 2356 UTC 24 May 2018
Updated at 0132 UTC 25 May 2018
Potential Impact None Slight Moderate High
Time<<26/02Z 26/03Z 26/04Z 26/05Z 26/06Z 26/07Z 26/08Z 26/09Z 26/10Z 26/11Z 26/12Z 26/13Z 26/14Z
Type PRVL PRVL PRVL PRVL
VIS >6 >6 >6 >6
CIG 50 50 50 50
Cover BKN BKN BKN BKN
FltCat VFR VFR VFR VFR
WX VCTS VCTS VCTS VCTS
WDir 200 200 200 200
WSpd 8 8 8 8
WGst -- -- -- --

Raw TAF
KTPA 242356Z 2500/2606 34007KT 6SM -RA VCTS BKN040CB BKN060
  FM250200 VRB03KT P6SM SCT030 BKN080 BKN250
  FM251400 15006KT P6SM SCT020 BKN100
  FM252000 20008KT P6SM VCTS SCT035CB BKN050


METAR Board
Radar Display
Forecast Discussion

FOR SITUATIONAL AWARENESS. NOT TO BE USED FOR FLIGHT PLANNING PURPOSES.